Flight Track Log - Related Links

Times and Time Zones

All times are in EDT time to prevent confusion due to time zone crossing. See the SWA1787 flight status page for this flight to view local times or setup timezone preferences in your user account.

Time Position Orientation Groundspeed Altitude Reporting Facility
EDT Latitude Longitude Course Direction KTS MPH feet Rate Location/Type
Sat 04:10:28 PM 41.7061 -71.4419 267° West 153 176 800  Level Boston Center
Sat 04:11:47 PM 41.7028 -71.5336 267° West 221 254 4,300 2,763 Climbing Boston Center
Sat 04:12:47 PM 41.7447 -71.5831 319° Northwest 222 255 7,200 2,617 Climbing Boston Center
Sat 04:14:00 PM 41.8122 -71.6658 318° Northwest 243 280 10,100 1,925 Climbing Boston Center
Sat 04:15:01 PM 41.8461 -71.7628 295° West 325 374 11,500 2,269 Climbing Boston Center
Sat 04:15:59 PM 41.8614 -71.9022 278° West 341 392 14,600 2,847 Climbing Boston Center
Sat 04:16:59 PM 41.8744 -72.0469 277° West 371 427 17,100 2,420 Climbing Boston Center
Sat 04:17:58 PM 41.8875 -72.1725 278° West 386 444 19,400 2,400 Climbing Boston Center
Sat 04:18:59 PM 41.8564 -72.3064 253° West 375 432 21,900 2,281 Climbing Boston Center
Sat 04:19:59 PM 41.8003 -72.4344 240° Southwest 377 434 24,000 2,033 Climbing Boston Center
Sat 04:21:00 PM 41.7417 -72.5681 240° Southwest 389 448 26,000 1,934 Climbing Boston Center
Sat 04:22:00 PM 41.6769 -72.7097 239° Southwest 403 464 27,900 1,780 Climbing Boston Center
Sat 04:22:58 PM 41.6139 -72.8483 239° Southwest 416 479 29,500 1,600 Climbing Boston Center
Sat 04:24:00 PM 41.5531 -72.9839 239° Southwest 429 494 31,100 1,525 Climbing Boston Center
Sat 04:25:00 PM 41.4961 -73.1136 240° Southwest 423 487 32,600 1,809 Climbing Boston Center
Sat 04:27:19 PM 41.3525 -73.4272 239° Southwest 434 499 37,100 1,590 Climbing New York Center
Sat 04:28:20 PM 41.2975 -73.5547 240° Southwest 422 486 37,900 393 Climbing New York Center
Sat 04:29:21 PM 41.2278 -73.6789 233° Southwest 422 486 37,900  Level New York Center
Sat 04:30:19 PM 41.1583 -73.7942 231° Southwest 422 486 37,900  Level New York Center
Sat 04:31:21 PM 41.0864 -73.9150 232° Southwest 422 486 37,900  Level New York Center
Sat 04:32:18 PM 41.0144 -74.0325 231° Southwest 417 480 37,900  Level New York Center
Sat 04:33:18 PM 40.9467 -74.1500 233° Southwest 417 480 37,900  Level New York Center
Sat 04:34:19 PM 40.8811 -74.2511 229° Southwest 411 473 37,900  Level New York Center
Sat 04:35:20 PM 40.8089 -74.3681 231° Southwest 411 473 37,900  Level New York Center
Sat 04:36:18 PM 40.7408 -74.4794 231° Southwest 411 473 37,900  Level New York Center
Sat 04:37:19 PM 40.6706 -74.5961 232° Southwest 411 473 37,900  Level New York Center
Sat 04:38:18 PM 40.5956 -74.7231 232° Southwest 411 473 37,900  Level New York Center
Sat 04:39:18 PM 40.5231 -74.8308 229° Southwest 411 473 37,900 49 Level New York Center
Sat 04:40:20 PM 40.4464 -74.9381 227° Southwest 411 473 38,000  Climbing New York Center
Sat 04:41:21 PM 40.3694 -75.0453 227° Southwest 411 473 37,900 -51 Descending New York Center
Sat 04:42:18 PM 40.2925 -75.1547 227° Southwest 411 473 37,900  Level New York Center
Sat 04:43:19 PM 40.2178 -75.2614 227° Southwest 406 467 37,900  Level New York Center
Sat 04:44:19 PM 40.1428 -75.3678 227° Southwest 406 467 37,900 37 Level New York Center
Sat 04:46:00 PM 40.0197 -75.5344 226° Southwest 395 455 38,000  Climbing Washington Center
Sat 04:47:00 PM 39.9428 -75.6403 227° Southwest 401 461 37,900  Descending Washington Center
Sat 04:48:00 PM 39.8678 -75.7536 229° Southwest 401 461 38,000  Climbing Washington Center
Sat 04:49:01 PM 39.7967 -75.8669 231° Southwest 406 467 37,900  Descending Washington Center
Sat 04:50:01 PM 39.7275 -75.9772 231° Southwest 406 467 38,000 51 Climbing Washington Center
Sat 04:50:59 PM 39.6564 -76.0903 231° Southwest 406 467 38,000 -50 Level Washington Center
Sat 04:52:00 PM 39.5850 -76.2028 231° Southwest 406 467 37,900  Descending Washington Center
Sat 04:53:01 PM 39.5136 -76.3150 231° Southwest 406 467 38,000  Climbing Washington Center
Sat 04:54:01 PM 39.4419 -76.4247 230° Southwest 401 461 37,900  Descending Washington Center
Sat 04:54:59 PM 39.3703 -76.5339 230° Southwest 401 461 38,000 51 Climbing Washington Center
Sat 04:55:59 PM 39.3006 -76.6403 230° Southwest 401 461 38,000  Level Washington Center
Sat 04:57:00 PM 39.2308 -76.7492 230° Southwest 401 461 38,000  Level Washington Center
Sat 04:58:01 PM 39.1611 -76.8606 231° Southwest 401 461 38,000  Level Washington Center
Sat 04:58:59 PM 39.0911 -76.9661 230° Southwest 396 456 38,000  Level Washington Center
Sat 05:00:00 PM 39.0169 -77.0689 227° Southwest 402 463 38,000  Level Washington Center
Sat 05:01:00 PM 38.9514 -77.1425 221° Southwest 395 455 38,000  Level Washington Center
Sat 05:02:00 PM 38.8478 -77.2494 219° Southwest 395 455 38,000  Level Washington Center
Sat 05:03:01 PM 38.7631 -77.3461 222° Southwest 406 467 38,000  Level Washington Center
Sat 05:04:02 PM 38.6803 -77.4347 220° Southwest 406 467 38,000  Level Washington Center
Sat 05:04:59 PM 38.5956 -77.5256 220° Southwest 406 467 38,000  Level Washington Center
Sat 05:06:00 PM 38.5147 -77.6164 221° Southwest 406 467 38,000  Level Washington Center
Sat 05:07:00 PM 38.4300 -77.7067 220° Southwest 406 467 38,000  Level Washington Center
Sat 05:08:01 PM 38.3469 -77.7969 220° Southwest 406 467 38,000  Level Washington Center
Sat 05:09:01 PM 38.2556 -77.8947 220° Southwest 401 461 38,000  Level Washington Center
Sat 05:09:59 PM 38.1722 -77.9847 220° Southwest 401 461 38,000  Level Washington Center
Sat 05:10:59 PM 38.0892 -78.0744 217° Southwest 396 456 38,000  Level Washington Center
Sat 05:11:00 PM 38.0825 -78.0710 217° Southwest  Level FlightAware Approximate
Sat 05:11:59 PM 38.0061 -78.1639 220° Southwest 396 456 38,000  Level Washington Center
Sat 05:13:00 PM 37.9208 -78.2453 217° Southwest 391 450 38,000  Level Washington Center
Sat 05:14:01 PM 37.8311 -78.3314 217° Southwest 391 450 38,000  Level Washington Center
Sat 05:14:59 PM 37.7439 -78.4150 217° Southwest 401 461 38,000  Level Washington Center
Sat 05:15:59 PM 37.6628 -78.4906 216° Southwest 401 461 38,000  Level Washington Center
Sat 05:17:00 PM 37.5731 -78.5736 216° Southwest 401 461 38,000  Level Washington Center
Sat 05:18:00 PM 37.4856 -78.6567 217° Southwest 401 461 38,000  Level Washington Center
Sat 05:19:01 PM 37.3978 -78.7394 217° Southwest 401 461 38,000  Level Washington Center
Sat 05:20:01 PM 37.3081 -78.8192 215° Southwest 401 461 38,000  Level Washington Center
Sat 05:20:59 PM 37.2139 -78.9067 217° Southwest 401 461 38,000  Level Washington Center
Sat 05:21:59 PM 37.1239 -78.9911 217° Southwest 401 461 38,000  Level Washington Center
Sat 05:23:00 PM 37.0361 -79.0733 217° Southwest 401 461 38,000  Level Washington Center
Sat 05:24:01 PM 36.9461 -79.1550 216° Southwest 401 461 38,000  Level Washington Center
Sat 05:24:59 PM 36.8558 -79.2364 216° Southwest 401 461 38,000  Level Washington Center
Sat 05:26:42 PM 36.6997 -79.3808 217° Southwest 406 467 38,000  Level Atlanta Center
Sat 05:27:42 PM 36.6111 -79.4611 216° Southwest 406 467 38,000  Level Atlanta Center
Sat 05:28:42 PM 36.5306 -79.5356 217° Southwest 406 467 38,000  Level Atlanta Center
Sat 05:29:42 PM 36.4414 -79.6128 215° Southwest 406 467 38,000  Level Atlanta Center
Sat 05:30:42 PM 36.3528 -79.6950 217° Southwest 406 467 38,000  Level Atlanta Center
Sat 05:31:42 PM 36.2639 -79.7769 217° Southwest 401 461 38,000  Level Atlanta Center
Sat 05:32:42 PM 36.1667 -79.8644 216° Southwest 401 461 38,000  Level Atlanta Center
Sat 05:33:42 PM 36.0775 -79.9436 216° Southwest 401 461 38,000  Level Atlanta Center
Sat 05:34:42 PM 35.9775 -80.0078 207° Southwest 401 461 38,000  Level Atlanta Center
Sat 05:35:42 PM 35.8728 -80.0617 203° Southwest 406 467 38,000  Level Atlanta Center
Sat 05:36:42 PM 35.7783 -80.1097 202° Southwest 412 474 38,000  Level Atlanta Center
Sat 05:37:42 PM 35.6594 -80.1692 202° Southwest 412 474 38,000  Level Atlanta Center
Sat 05:38:42 PM 35.5547 -80.2225 203° Southwest 412 474 38,000  Level Atlanta Center
Sat 05:39:42 PM 35.4497 -80.2758 202° Southwest 412 474 38,000  Level Atlanta Center
Sat 05:40:42 PM 35.3408 -80.3292 202° Southwest 412 474 38,000  Level Atlanta Center
Sat 05:41:42 PM 35.2339 -80.3822 202° Southwest 412 474 38,000  Level Atlanta Center
Sat 05:42:42 PM 35.1394 -80.4297 202° Southwest 419 482 38,000  Level Atlanta Center
Sat 05:45:10 PM 34.8581 -80.5675 202° Southwest 433 498 38,000  Level Jacksonville Center
Sat 05:46:10 PM 34.7589 -80.6258 206° Southwest 415 478 38,000  Level Jacksonville Center
Sat 05:47:10 PM 34.6492 -80.6717 199° South 410 472 38,000  Level Jacksonville Center
Sat 05:48:10 PM 34.5378 -80.7300 203° Southwest 431 496 38,000  Level Jacksonville Center
Sat 05:49:10 PM 34.4300 -80.7781 200° South 431 496 38,000  Level Jacksonville Center
Sat 05:50:10 PM 34.3225 -80.8358 204° Southwest 431 496 38,000  Level Jacksonville Center
Sat 05:51:10 PM 34.2189 -80.8811 200° South 420 483 38,000  Level Jacksonville Center
Sat 05:52:10 PM 34.1111 -80.9336 202° Southwest 420 483 38,000  Level Jacksonville Center
Sat 05:53:10 PM 34.0014 -80.9864 202° Southwest 420 483 38,000  Level Jacksonville Center
Sat 05:54:10 PM 33.8850 -81.0139 191° South 425 489 38,000  Level Jacksonville Center
Sat 05:55:10 PM 33.7661 -81.0089 178° South 425 489 38,000 -50 Level Jacksonville Center
Sat 05:56:10 PM 33.6467 -80.9864 171° South 425 489 37,900  Descending Jacksonville Center
Sat 05:57:10 PM 33.5281 -81.0014 186° South 425 489 38,000  Climbing Jacksonville Center
Sat 05:58:10 PM 33.4181 -81.0536 202° Southwest 419 482 37,900  Descending Jacksonville Center
Sat 05:59:10 PM 33.3083 -81.1081 203° Southwest 424 488 38,000 50 Climbing Jacksonville Center
Sat 06:00:10 PM 33.1983 -81.1575 201° Southwest 424 488 38,000 -50 Level Jacksonville Center
Sat 06:01:10 PM 33.0886 -81.2117 202° Southwest 430 495 37,900 -50 Descending Jacksonville Center
Sat 06:02:10 PM 32.9786 -81.2631 201° Southwest 430 495 37,900  Level Jacksonville Center
Sat 06:03:10 PM 32.8664 -81.3122 200° South 430 495 37,900 50 Level Jacksonville Center
Sat 06:04:10 PM 32.7586 -81.3658 203° Southwest 430 495 38,000 50 Climbing Jacksonville Center
Sat 06:05:10 PM 32.6506 -81.4172 202° Southwest 430 495 38,000  Level Jacksonville Center
Sat 06:06:10 PM 32.5406 -81.4706 202° Southwest 430 495 38,000  Level Jacksonville Center
Sat 06:07:10 PM 32.4408 -81.5164 201° Southwest 430 495 38,000  Level Jacksonville Center
Sat 06:08:10 PM 32.3161 -81.5700 200° South 436 502 38,000  Level Jacksonville Center
Sat 06:09:10 PM 32.2122 -81.6108 198° South 442 509 38,000  Level Jacksonville Center
Sat 06:10:10 PM 32.0875 -81.6664 201° Southwest 442 509 38,000  Level Jacksonville Center
Sat 06:11:10 PM 31.9753 -81.7169 201° Southwest 436 502 38,000  Level Jacksonville Center
Sat 06:12:10 PM 31.8714 -81.7622 200° South 441 507 38,000  Level Jacksonville Center
Sat 06:13:10 PM 31.7486 -81.8200 202° Southwest 435 501 38,000  Level Jacksonville Center
Sat 06:14:10 PM 31.6467 -81.8700 203° Southwest 435 501 38,000  Level Jacksonville Center
Sat 06:15:10 PM 31.5219 -81.9250 201° Southwest 435 501 38,000  Level Jacksonville Center
Sat 06:16:10 PM 31.3989 -81.9531 191° South 443 510 38,000  Level Jacksonville Center
Sat 06:17:10 PM 31.2925 -81.9808 193° South 448 516 38,000 -50 Level Jacksonville Center
Sat 06:18:10 PM 31.1697 -82.0089 191° South 448 516 37,900  Descending Jacksonville Center
Sat 06:19:10 PM 31.0467 -82.0342 190° South 448 516 38,000 50 Climbing Jacksonville Center
Sat 06:20:10 PM 30.9111 -82.0644 191° South 448 516 38,000 -50 Level Jacksonville Center
Sat 06:21:10 PM 30.7903 -82.0922 191° South 448 516 37,900  Descending Jacksonville Center
Sat 06:22:10 PM 30.6714 -82.1197 191° South 448 516 38,000  Climbing Jacksonville Center
Sat 06:23:10 PM 30.5503 -82.1425 189° South 448 516 37,900 -50 Descending Jacksonville Center
Sat 06:24:10 PM 30.4294 -82.1697 191° South 448 516 37,900 -250 Level Jacksonville Center
Sat 06:25:10 PM 30.3064 -82.1972 191° South 448 516 37,400 -750 Descending Jacksonville Center
Sat 06:26:10 PM 30.1833 -82.2244 191° South 448 516 36,400 -950 Descending Jacksonville Center
Sat 06:27:10 PM 30.0625 -82.2494 190° South 448 516 35,500 -900 Descending Jacksonville Center
Sat 06:28:10 PM 29.9331 -82.2839 193° South 461 531 34,600 -1,200 Descending Jacksonville Center
Sat 06:29:10 PM 29.8100 -82.3133 192° South 461 531 33,100 -2,200 Descending Jacksonville Center
Sat 06:30:10 PM 29.6869 -82.3356 189° South 461 531 30,200 -3,100 Descending Jacksonville Center
Sat 06:31:10 PM 29.5597 -82.3531 187° South 467 537 26,900 -1,700 Descending Jacksonville Center
Sat 06:32:10 PM 29.4322 -82.3394 175° South 461 531 26,800 -650 Descending Jacksonville Center
Sat 06:33:10 PM 29.3194 -82.3281 175° South 455 524 25,600 -1,850 Descending Jacksonville Center
Sat 06:34:10 PM 29.2006 -82.3122 173° South 455 524 23,100 -2,500 Descending Jacksonville Center
Sat 06:35:10 PM 29.0836 -82.2986 174° South 438 504 20,600 -2,400 Descending Jacksonville Center
Sat 06:36:10 PM 28.9750 -82.2850 174° South 419 482 18,300 -2,350 Descending Jacksonville Center
Sat 06:37:10 PM 28.8664 -82.2739 175° South 406 467 15,900 -1,921 Descending Jacksonville Center
Sat 06:39:08 PM 28.6500 -82.2500 174° South 369 425 12,600 -1,519 Descending Tampa TRACON
Sat 06:39:44 PM 28.6000 -82.2500 180° South 369 425 12,000 -941 Descending Tampa TRACON
Sat 06:40:50 PM 28.4833 -82.2833 194° South 358 412 11,000 -571 Descending Tampa TRACON
Sat 06:41:50 PM 28.3833 -82.3000 188° South 352 405 10,800 -579 Descending Tampa TRACON
Sat 06:42:44 PM 28.3000 -82.3333 199° South 343 395 9,900 -1,091 Descending Tampa TRACON
Sat 06:43:51 PM 28.2167 -82.3500 190° South 294 338 8,600 -1,323 Descending Tampa TRACON
Sat 06:44:51 PM 28.1333 -82.3667 190° South 289 333 7,100 -1,513 Descending Tampa TRACON
Sat 06:45:50 PM 28.0667 -82.4000 204° Southwest 283 326 5,600 -1,105 Descending Tampa TRACON
Sat 06:46:45 PM 28.0000 -82.4167 192° South 276 318 5,000 -496 Descending Tampa TRACON
Sat 06:47:51 PM 27.9167 -82.4333 190° South 241 277 4,600 -667 Descending Tampa TRACON
Sat 06:48:51 PM 27.8500 -82.4500 192° South 233 268 3,600 -857 Descending Tampa TRACON
Sat 06:49:57 PM 27.8500 -82.5333 270° West 210 242 2,800 -909 Descending Tampa TRACON
Sat 06:51:03 PM 27.9000 -82.5500 344° North 175 201 1,600 -1,100 Descending Tampa TRACON
Sat 06:51:57 PM 27.9333 -82.5500 360° North 151 174 600 -1,111 Descending Tampa TRACON

Login

Don't have an account? Register now (free) for customized features, flight alerts, and more!